createdAt,value
2022-10-19T00:01:11.875Z,101484.69
2022-10-19T00:03:45.963Z,101478.69
2022-10-19T00:06:25.477Z,101475.25
2022-10-19T00:09:00.783Z,101478.13
2022-10-19T00:11:37.323Z,101466.94
2022-10-19T00:14:14.040Z,101463.06
2022-10-19T00:16:49.110Z,101463.84
2022-10-19T00:19:24.934Z,101465.41
2022-10-19T00:21:57.707Z,101479.69
2022-10-19T00:24:31.417Z,101478.00
2022-10-19T00:27:06.310Z,101483.28
2022-10-19T00:29:39.667Z,101499.06
2022-10-19T00:32:12.548Z,101487.25
2022-10-19T00:34:45.409Z,101482.75
2022-10-19T00:37:18.303Z,101474.00
2022-10-19T00:42:30.737Z,101473.63
2022-10-19T00:45:14.014Z,101471.28
2022-10-19T00:47:47.029Z,101464.59
2022-10-19T00:50:20.509Z,101456.41
2022-10-19T00:52:53.524Z,101475.50
2022-10-19T00:55:27.299Z,101465.94
2022-10-19T00:58:03.537Z,101467.56
2022-10-19T01:00:36.956Z,101470.09
2022-10-19T01:03:13.016Z,101480.47
2022-10-19T01:05:45.872Z,101474.25
2022-10-19T01:08:19.188Z,101470.13
2022-10-19T01:11:05.601Z,101469.72
2022-10-19T01:13:51.918Z,101470.38
2022-10-19T01:16:37.301Z,101455.78
2022-10-19T01:19:32.128Z,101448.66
2022-10-19T01:22:14.006Z,101444.91
2022-10-19T01:27:45.105Z,101429.13
2022-10-19T01:30:27.002Z,101422.41
2022-10-19T01:33:15.666Z,101415.31
2022-10-19T01:36:03.116Z,101410.28
2022-10-19T01:38:40.995Z,101411.25
2022-10-19T01:41:19.173Z,101402.84
2022-10-19T01:43:59.314Z,101408.47
2022-10-19T01:46:39.162Z,101417.13
2022-10-19T01:49:20.181Z,101419.22
2022-10-19T01:54:42.476Z,101405.25
2022-10-19T01:57:21.158Z,101405.69
2022-10-19T01:59:56.775Z,101401.06
2022-10-19T02:02:31.453Z,101400.13
2022-10-19T02:05:06.447Z,101387.28
2022-10-19T02:07:42.481Z,101372.53
2022-10-19T02:10:16.757Z,101389.97
2022-10-19T02:12:51.056Z,101376.47
2022-10-19T02:15:28.353Z,101385.13
2022-10-19T02:18:04.521Z,101395.50
2022-10-19T02:20:37.995Z,101391.38
2022-10-19T02:23:11.219Z,101389.84
2022-10-19T02:25:44.330Z,101390.16
2022-10-19T02:28:18.352Z,101388.97
2022-10-19T02:30:51.630Z,101381.91
2022-10-19T02:33:26.328Z,101380.09
2022-10-19T02:36:00.967Z,101377.72
2022-10-19T02:38:33.872Z,101368.47
2022-10-19T02:41:13.127Z,101376.09
2022-10-19T02:43:50.781Z,101366.06
2022-10-19T02:46:29.752Z,101371.19
2022-10-19T02:49:07.325Z,101360.28
2022-10-19T02:51:41.903Z,101356.56
2022-10-19T02:54:14.671Z,101356.47
2022-10-19T02:56:47.479Z,101370.25
2022-10-19T02:59:20.329Z,101375.03
2022-10-19T03:01:53.584Z,101375.34
2022-10-19T03:04:27.701Z,101372.19
2022-10-19T03:07:00.487Z,101377.22
2022-10-19T03:09:33.248Z,101369.59
2022-10-19T03:12:06.297Z,101375.88
2022-10-19T03:14:39.307Z,101363.50
2022-10-19T03:17:12.235Z,101352.84
2022-10-19T03:19:46.368Z,101349.22
2022-10-19T03:22:19.240Z,101353.56
2022-10-19T03:24:52.057Z,101353.94
2022-10-19T03:27:24.835Z,101367.19
2022-10-19T03:29:57.601Z,101345.66
2022-10-19T03:32:30.499Z,101343.78
2022-10-19T03:35:04.801Z,101351.97
2022-10-19T03:37:37.745Z,101347.75
2022-10-19T03:40:11.319Z,101339.22
2022-10-19T03:42:44.150Z,101311.72
2022-10-19T03:45:17.145Z,101326.47
2022-10-19T03:47:50.656Z,101310.88
2022-10-19T03:50:25.012Z,101298.25
2022-10-19T03:52:57.820Z,101300.06
2022-10-19T03:55:31.630Z,101297.59
2022-10-19T03:58:04.422Z,101295.69
2022-10-19T04:00:37.186Z,101310.53
2022-10-19T04:03:10.009Z,101307.00
2022-10-19T04:05:44.167Z,101297.94
2022-10-19T04:08:17.052Z,101299.84
2022-10-19T04:10:49.812Z,101284.41
2022-10-19T04:13:22.691Z,101297.16
2022-10-19T04:15:55.478Z,101295.22
2022-10-19T04:18:28.360Z,101291.63
2022-10-19T04:21:04.521Z,101278.34
2022-10-19T04:23:39.001Z,101268.41
2022-10-19T04:26:11.731Z,101274.28
2022-10-19T04:28:44.801Z,101275.38
2022-10-19T04:31:17.613Z,101274.81
2022-10-19T04:33:50.480Z,101280.78
2022-10-19T04:36:25.224Z,101275.16
2022-10-19T04:38:58.238Z,101281.13
2022-10-19T04:41:31.133Z,101269.19
2022-10-19T04:44:06.547Z,101264.25
2022-10-19T04:46:39.511Z,101267.97
2022-10-19T04:49:15.212Z,101279.59
2022-10-19T04:51:52.203Z,101283.06
2022-10-19T04:54:25.324Z,101260.34
2022-10-19T04:56:58.173Z,101273.28
2022-10-19T04:59:30.919Z,101262.94
2022-10-19T05:02:03.880Z,101264.16
2022-10-19T05:04:36.656Z,101265.34
2022-10-19T05:07:10.954Z,101256.13
2022-10-19T05:09:43.812Z,101249.47
2022-10-19T05:12:16.614Z,101252.56
2022-10-19T05:14:49.517Z,101233.28
2022-10-19T05:17:22.473Z,101245.41
2022-10-19T05:19:55.827Z,101242.97
2022-10-19T05:22:30.047Z,101231.94
2022-10-19T05:25:03.002Z,101217.78
2022-10-19T05:27:36.162Z,101211.81
2022-10-19T05:30:10.529Z,101212.16
2022-10-19T05:32:43.385Z,101201.94
2022-10-19T05:35:18.693Z,101201.78
2022-10-19T05:37:56.927Z,101205.19
2022-10-19T05:40:29.712Z,101206.34
2022-10-19T05:43:02.471Z,101201.75
2022-10-19T05:45:35.244Z,101199.72
2022-10-19T05:48:08.242Z,101204.88
2022-10-19T05:50:41.009Z,101206.25
2022-10-19T05:53:15.151Z,101221.53
2022-10-19T05:55:47.975Z,101213.19
2022-10-19T05:58:20.797Z,101206.75
2022-10-19T06:00:54.836Z,101219.66
2022-10-19T06:03:27.751Z,101231.22
2022-10-19T06:06:04.541Z,101226.84
2022-10-19T06:08:39.525Z,101212.72
2022-10-19T06:11:13.775Z,101207.91
2022-10-19T06:13:48.169Z,101203.34
2022-10-19T06:16:22.883Z,101191.91
2022-10-19T06:18:57.003Z,101178.81
2022-10-19T06:21:31.544Z,101181.69
2022-10-19T06:24:06.555Z,101180.84
2022-10-19T06:26:39.432Z,101181.69
2022-10-19T06:29:12.305Z,101175.38
2022-10-19T06:31:46.393Z,101179.81
2022-10-19T06:34:19.296Z,101176.09
2022-10-19T06:36:52.126Z,101186.66
2022-10-19T06:39:26.368Z,101179.84
2022-10-19T06:41:59.136Z,101174.53
2022-10-19T06:44:31.889Z,101153.44
2022-10-19T06:47:04.708Z,101158.53
2022-10-19T06:49:37.597Z,101149.50
2022-10-19T06:52:10.413Z,101151.22
2022-10-19T06:54:44.596Z,101146.81
2022-10-19T06:57:17.479Z,101141.34
2022-10-19T06:59:52.866Z,101138.97
2022-10-19T07:02:26.518Z,101134.00
2022-10-19T07:05:03.260Z,101137.94
2022-10-19T07:07:39.022Z,101150.88
2022-10-19T07:10:14.781Z,101151.16
2022-10-19T07:12:47.589Z,101144.88
2022-10-19T07:15:20.365Z,101141.50
2022-10-19T07:17:54.182Z,101152.75
2022-10-19T07:20:27.040Z,101151.03
2022-10-19T07:23:00.235Z,101153.59
2022-10-19T07:25:34.683Z,101140.41
2022-10-19T07:28:07.513Z,101130.88
2022-10-19T07:30:40.533Z,101132.16
2022-10-19T07:33:13.381Z,101141.28
2022-10-19T07:35:46.309Z,101131.91
2022-10-19T07:38:19.291Z,101142.94
2022-10-19T07:40:53.432Z,101142.59
2022-10-19T07:43:26.245Z,101140.25
2022-10-19T07:46:00.071Z,101134.06
2022-10-19T07:48:33.652Z,101113.72
2022-10-19T07:51:09.571Z,101112.94
2022-10-19T07:53:43.050Z,101117.44
2022-10-19T07:56:18.828Z,101107.38
2022-10-19T07:58:52.925Z,101118.19
2022-10-19T08:01:27.932Z,101112.19
2022-10-19T08:06:54.897Z,101112.09
2022-10-19T08:09:51.579Z,101122.25
2022-10-19T08:12:21.963Z,101120.66
2022-10-19T08:14:55.427Z,101117.19
2022-10-19T08:17:28.230Z,101116.22
2022-10-19T08:20:01.100Z,101116.94
2022-10-19T08:22:34.120Z,101125.00
2022-10-19T08:25:07.698Z,101124.44
2022-10-19T08:27:41.828Z,101123.66
2022-10-19T08:30:14.625Z,101113.69
2022-10-19T08:32:47.474Z,101122.94
2022-10-19T08:35:20.255Z,101099.31
2022-10-19T08:37:53.614Z,101105.41
2022-10-19T08:40:29.801Z,101088.66
2022-10-19T08:43:12.334Z,101083.84
2022-10-19T08:45:54.702Z,101086.00
2022-10-19T08:48:32.849Z,101092.47
2022-10-19T08:51:37.028Z,101087.69
2022-10-19T08:54:17.764Z,101076.63
2022-10-19T08:57:02.678Z,101068.31
2022-10-19T08:59:42.794Z,101081.88
2022-10-19T09:02:21.499Z,101070.50
2022-10-19T09:05:01.406Z,101065.75
2022-10-19T09:07:45.023Z,101061.28
2022-10-19T09:10:24.376Z,101060.06
2022-10-19T09:13:01.456Z,101050.97
2022-10-19T09:15:40.075Z,101056.28
2022-10-19T09:18:19.895Z,101060.63
2022-10-19T09:20:59.064Z,101062.59
2022-10-19T09:23:39.720Z,101071.19
2022-10-19T09:26:17.244Z,101056.94
2022-10-19T09:28:58.415Z,101057.84
2022-10-19T09:31:39.574Z,101061.63
2022-10-19T09:34:18.049Z,101061.25
2022-10-19T09:36:56.135Z,101054.69
2022-10-19T09:39:32.161Z,101063.84
2022-10-19T09:42:11.479Z,101054.88
2022-10-19T09:44:44.528Z,101051.19
2022-10-19T09:47:33.307Z,101045.19
2022-10-19T09:50:25.194Z,101041.09
2022-10-19T09:52:59.477Z,101041.66
2022-10-19T09:55:39.470Z,101044.19
2022-10-19T09:58:19.709Z,101055.91
2022-10-19T10:00:55.240Z,101056.97
2022-10-19T10:03:30.952Z,101055.63
2022-10-19T10:06:07.292Z,101036.72
2022-10-19T10:08:45.816Z,101034.31
2022-10-19T10:11:27.951Z,101035.22
2022-10-19T10:14:09.867Z,101025.88
2022-10-19T10:16:43.062Z,101028.91
2022-10-19T10:19:19.021Z,101030.31
2022-10-19T10:21:54.787Z,101020.81
2022-10-19T10:24:29.681Z,101020.63
2022-10-19T10:27:06.157Z,101005.53
2022-10-19T10:29:40.096Z,100997.78
2022-10-19T10:32:17.385Z,100996.94
2022-10-19T10:35:01.111Z,101000.50
2022-10-19T10:37:40.143Z,100999.94
2022-10-19T10:40:23.866Z,101006.16
2022-10-19T10:43:05.896Z,101006.63
2022-10-19T10:45:42.510Z,101008.25
2022-10-19T10:48:24.428Z,100996.78
2022-10-19T10:50:58.570Z,100997.66
2022-10-19T10:53:35.792Z,100985.00
2022-10-19T10:56:23.423Z,100992.81
2022-10-19T10:59:03.087Z,100991.13
2022-10-19T11:01:42.084Z,100992.69
2022-10-19T11:04:18.689Z,100985.69
2022-10-19T11:06:58.435Z,100977.59
2022-10-19T11:09:37.592Z,100984.22
2022-10-19T11:12:15.800Z,100976.31
2022-10-19T11:14:54.769Z,100968.94
2022-10-19T11:17:31.197Z,100969.09
2022-10-19T11:20:06.493Z,100958.78
2022-10-19T11:22:45.636Z,100952.28
2022-10-19T11:25:27.404Z,100945.78
2022-10-19T11:28:12.064Z,100948.75
2022-10-19T11:30:58.466Z,100933.88
2022-10-19T11:33:50.017Z,100925.59
2022-10-19T11:36:43.504Z,100923.53
2022-10-19T11:39:40.117Z,100914.16
2022-10-19T11:42:21.975Z,100903.53
2022-10-19T11:45:05.929Z,100890.75
2022-10-19T11:48:00.081Z,100883.75
2022-10-19T11:50:53.774Z,100874.88
2022-10-19T11:53:41.118Z,100879.19
2022-10-19T11:56:20.506Z,100871.03
2022-10-19T11:59:03.237Z,100864.63
2022-10-19T12:01:50.863Z,100861.38
2022-10-19T12:05:00.284Z,100845.81
2022-10-19T12:07:46.332Z,100845.06
2022-10-19T12:10:26.540Z,100832.22
2022-10-19T12:13:03.750Z,100835.41
2022-10-19T12:15:40.939Z,100841.22
2022-10-19T12:18:20.810Z,100843.03
2022-10-19T12:21:00.327Z,100839.00
2022-10-19T12:23:36.116Z,100820.47
2022-10-19T12:26:15.714Z,100803.06
2022-10-19T12:28:51.789Z,100799.41
2022-10-19T12:31:26.041Z,100790.44
2022-10-19T12:34:03.563Z,100773.88
2022-10-19T12:36:46.004Z,100779.25
2022-10-19T12:39:25.470Z,100766.63
2022-10-19T12:42:10.608Z,100765.47
2022-10-19T12:45:07.453Z,100751.03
2022-10-19T12:47:40.705Z,100759.28
2022-10-19T12:50:13.660Z,100764.69
2022-10-19T12:52:52.273Z,100771.09
2022-10-19T12:55:30.474Z,100762.31
2022-10-19T12:58:07.530Z,100764.72
2022-10-19T13:00:40.486Z,100752.38
2022-10-19T13:03:25.065Z,100742.44
2022-10-19T13:06:03.160Z,100726.16
2022-10-19T13:08:43.229Z,100706.56
2022-10-19T13:11:16.716Z,100698.97
2022-10-19T13:13:57.849Z,100684.38
2022-10-19T13:17:07.209Z,100658.53
2022-10-19T13:19:40.114Z,100650.47
2022-10-19T13:22:29.288Z,100637.66
2022-10-19T13:25:29.581Z,100635.88
2022-10-19T13:28:38.871Z,100642.69
2022-10-19T13:31:25.599Z,100626.38
2022-10-19T13:33:59.020Z,100618.66
2022-10-19T13:36:32.645Z,100621.25
2022-10-19T13:39:13.407Z,100619.88
2022-10-19T13:41:50.346Z,100622.22
2022-10-19T13:44:39.474Z,100620.16
2022-10-19T13:50:35.459Z,100623.97
2022-10-19T13:53:35.985Z,100610.41
2022-10-19T13:56:32.622Z,100603.72
2022-10-19T13:59:28.570Z,100611.09
2022-10-19T14:02:35.961Z,100608.09
2022-10-19T14:05:24.075Z,100611.09
2022-10-19T14:08:11.173Z,100603.75
2022-10-19T14:11:00.161Z,100587.91
2022-10-19T14:13:34.133Z,100580.97
2022-10-19T14:16:07.401Z,100595.50
2022-10-19T14:18:43.186Z,100580.34
2022-10-19T14:21:15.979Z,100582.47
2022-10-19T14:23:48.781Z,100569.91
2022-10-19T14:26:24.735Z,100568.28
2022-10-19T14:28:59.996Z,100558.22
2022-10-19T14:31:37.221Z,100560.72
2022-10-19T14:34:11.824Z,100557.56
2022-10-19T14:36:48.084Z,100549.56
2022-10-19T14:39:32.222Z,100537.34
2022-10-19T14:42:07.409Z,100542.59
2022-10-19T14:44:42.464Z,100535.19
2022-10-19T14:47:21.503Z,100529.13
2022-10-19T14:49:55.719Z,100527.84
2022-10-19T14:52:34.412Z,100525.97
2022-10-19T14:55:13.929Z,100520.88
2022-10-19T14:57:54.866Z,100523.22
2022-10-19T15:00:28.784Z,100522.59
2022-10-19T15:03:05.411Z,100524.06
2022-10-19T15:05:48.177Z,100520.88
2022-10-19T15:08:31.437Z,100504.25
2022-10-19T15:11:05.805Z,100501.75
2022-10-19T15:13:42.877Z,100498.31
2022-10-19T15:16:43.232Z,100485.91
2022-10-19T15:19:19.482Z,100475.59
2022-10-19T15:25:03.380Z,100453.88
2022-10-19T15:27:37.594Z,100424.75
2022-10-19T15:30:26.600Z,100433.19
2022-10-19T15:33:14.836Z,100431.53
2022-10-19T15:35:49.416Z,100424.41
2022-10-19T15:38:26.369Z,100398.06
2022-10-19T15:41:02.934Z,100402.28
2022-10-19T15:43:46.019Z,100396.81
2022-10-19T15:46:28.324Z,100391.94
2022-10-19T15:49:04.442Z,100395.53
2022-10-19T15:51:47.956Z,100378.03
2022-10-19T15:54:20.785Z,100373.81
2022-10-19T15:56:56.445Z,100372.13
2022-10-19T15:59:29.236Z,100357.81
2022-10-19T16:02:02.080Z,100361.81
2022-10-19T16:04:34.922Z,100362.88
2022-10-19T16:07:08.101Z,100379.09
2022-10-19T16:09:40.941Z,100370.69
2022-10-19T16:12:15.168Z,100372.56
2022-10-19T16:14:47.955Z,100376.38
2022-10-19T16:17:21.043Z,100369.63
2022-10-19T16:19:53.819Z,100382.44
2022-10-19T16:22:26.613Z,100384.22
2022-10-19T16:24:59.460Z,100378.34
2022-10-19T16:27:33.990Z,100367.06
2022-10-19T16:30:08.471Z,100359.25
2022-10-19T16:35:15.257Z,100356.78
2022-10-19T16:37:48.050Z,100344.50
2022-10-19T16:40:20.844Z,100353.59
2022-10-19T16:42:56.739Z,100348.22
2022-10-19T16:45:29.882Z,100341.28
2022-10-19T16:48:02.759Z,100337.38
2022-10-19T16:50:35.583Z,100337.72
2022-10-19T16:53:11.189Z,100329.16
2022-10-19T16:55:44.046Z,100316.13
2022-10-19T16:58:18.249Z,100333.13
2022-10-19T17:00:51.033Z,100326.47
2022-10-19T17:03:24.115Z,100328.66
2022-10-19T17:05:56.901Z,100312.03
2022-10-19T17:08:36.926Z,100301.44
2022-10-19T17:11:11.195Z,100281.31
2022-10-19T17:13:46.663Z,100282.56
2022-10-19T17:16:21.439Z,100283.34
2022-10-19T17:18:56.336Z,100272.25
2022-10-19T17:21:31.610Z,100281.31
2022-10-19T17:24:05.658Z,100259.00
2022-10-19T17:26:40.354Z,100247.88
2022-10-19T17:29:15.001Z,100246.47
2022-10-19T17:31:48.193Z,100242.31
2022-10-19T17:34:21.016Z,100256.22
2022-10-19T17:36:53.785Z,100246.19
2022-10-19T17:39:29.991Z,100233.97
2022-10-19T17:42:05.065Z,100204.38
2022-10-19T17:44:40.434Z,100191.97
2022-10-19T17:47:13.297Z,100192.38
2022-10-19T17:49:46.136Z,100172.81
2022-10-19T17:52:19.803Z,100159.09
2022-10-19T17:55:12.201Z,100163.66
2022-10-19T17:57:45.908Z,100157.94
2022-10-19T18:00:20.364Z,100170.16
2022-10-19T18:02:54.000Z,100174.38
2022-10-19T18:05:27.787Z,100156.44
2022-10-19T18:08:01.406Z,100159.47
2022-10-19T18:10:37.849Z,100141.25
2022-10-19T18:13:10.620Z,100147.16
2022-10-19T18:15:45.951Z,100157.81
2022-10-19T18:18:20.039Z,100142.22
2022-10-19T18:20:53.979Z,100143.06
2022-10-19T18:23:27.665Z,100139.56
2022-10-19T18:26:03.672Z,100121.09
2022-10-19T18:28:37.693Z,100135.84
2022-10-19T18:31:15.450Z,100123.41
2022-10-19T18:33:49.806Z,100111.28
2022-10-19T18:36:22.913Z,100111.38
2022-10-19T18:38:57.576Z,100119.47
2022-10-19T18:41:31.412Z,100111.81
2022-10-19T18:44:06.847Z,100106.06
2022-10-19T18:46:42.385Z,100115.19
2022-10-19T18:49:16.287Z,100108.16
2022-10-19T18:51:55.135Z,100096.72
2022-10-19T18:54:29.629Z,100100.56
2022-10-19T18:57:03.389Z,100082.97
2022-10-19T18:59:36.215Z,100080.34
2022-10-19T19:02:22.127Z,100051.97
2022-10-19T19:04:56.177Z,100076.66
2022-10-19T19:07:29.998Z,100053.16
2022-10-19T19:10:06.349Z,100050.59
2022-10-19T19:12:45.655Z,99977.53
2022-10-19T19:15:20.207Z,100055.97
2022-10-19T19:17:57.451Z,100049.50
2022-10-19T19:20:30.675Z,100055.97
2022-10-19T19:23:04.463Z,100048.16
